sensor_id;sensor_type;location;lat;lon;timestamp;P1;durP1;ratioP1;P2;durP2;ratioP2
44476;SDS011;30180;44.788;10.366;2023-01-28T00:01:04;5.70;;;3.13;;
44476;SDS011;30180;44.788;10.366;2023-01-28T00:03:33;4.68;;;2.90;;
44476;SDS011;30180;44.788;10.366;2023-01-28T00:06:02;4.80;;;2.60;;
44476;SDS011;30180;44.788;10.366;2023-01-28T00:08:32;5.85;;;3.28;;
44476;SDS011;30180;44.788;10.366;2023-01-28T00:11:01;4.57;;;2.85;;
44476;SDS011;30180;44.788;10.366;2023-01-28T00:13:31;5.25;;;2.78;;
44476;SDS011;30180;44.788;10.366;2023-01-28T00:16:00;5.30;;;2.95;;
44476;SDS011;30180;44.788;10.366;2023-01-28T00:21:00;5.20;;;2.78;;
44476;SDS011;30180;44.788;10.366;2023-01-28T00:23:30;4.75;;;2.72;;
44476;SDS011;30180;44.788;10.366;2023-01-28T00:26:02;4.45;;;2.53;;
44476;SDS011;30180;44.788;10.366;2023-01-28T00:28:32;5.45;;;2.85;;
44476;SDS011;30180;44.788;10.366;2023-01-28T00:31:04;4.80;;;2.58;;
44476;SDS011;30180;44.788;10.366;2023-01-28T00:33:35;4.28;;;2.60;;
44476;SDS011;30180;44.788;10.366;2023-01-28T00:36:04;4.50;;;2.78;;
44476;SDS011;30180;44.788;10.366;2023-01-28T00:38:34;5.25;;;2.80;;
44476;SDS011;30180;44.788;10.366;2023-01-28T00:41:06;5.68;;;2.67;;
44476;SDS011;30180;44.788;10.366;2023-01-28T00:43:35;6.57;;;2.70;;
44476;SDS011;30180;44.788;10.366;2023-01-28T00:46:03;4.47;;;2.78;;
44476;SDS011;30180;44.788;10.366;2023-01-28T00:48:33;5.60;;;2.70;;
44476;SDS011;30180;44.788;10.366;2023-01-28T00:51:01;5.03;;;2.75;;
44476;SDS011;30180;44.788;10.366;2023-01-28T00:53:31;5.35;;;3.10;;
44476;SDS011;30180;44.788;10.366;2023-01-28T00:56:01;5.55;;;2.65;;
44476;SDS011;30180;44.788;10.366;2023-01-28T00:58:29;5.60;;;3.20;;
44476;SDS011;30180;44.788;10.366;2023-01-28T01:01:05;4.43;;;2.70;;
44476;SDS011;30180;44.788;10.366;2023-01-28T01:03:34;5.30;;;2.80;;
44476;SDS011;30180;44.788;10.366;2023-01-28T01:06:02;5.53;;;2.80;;
44476;SDS011;30180;44.788;10.366;2023-01-28T01:08:31;4.75;;;2.42;;
44476;SDS011;30180;44.788;10.366;2023-01-28T01:11:07;5.05;;;2.53;;
44476;SDS011;30180;44.788;10.366;2023-01-28T01:13:36;6.03;;;2.63;;
44476;SDS011;30180;44.788;10.366;2023-01-28T01:16:06;4.93;;;2.85;;
44476;SDS011;30180;44.788;10.366;2023-01-28T01:21:07;4.40;;;2.70;;
44476;SDS011;30180;44.788;10.366;2023-01-28T01:23:36;5.10;;;2.85;;
44476;SDS011;30180;44.788;10.366;2023-01-28T01:26:05;4.70;;;2.60;;
44476;SDS011;30180;44.788;10.366;2023-01-28T01:28:34;4.22;;;2.80;;
44476;SDS011;30180;44.788;10.366;2023-01-28T01:31:04;4.40;;;2.85;;
44476;SDS011;30180;44.788;10.366;2023-01-28T01:33:33;4.95;;;2.78;;
44476;SDS011;30180;44.788;10.366;2023-01-28T01:36:02;4.50;;;3.00;;
44476;SDS011;30180;44.788;10.366;2023-01-28T01:38:30;4.68;;;2.83;;
44476;SDS011;30180;44.788;10.366;2023-01-28T01:40:59;4.93;;;2.88;;
44476;SDS011;30180;44.788;10.366;2023-01-28T01:46:16;4.50;;;2.50;;
44476;SDS011;30180;44.788;10.366;2023-01-28T01:48:47;4.57;;;2.80;;
44476;SDS011;30180;44.788;10.366;2023-01-28T01:51:16;4.22;;;2.72;;
44476;SDS011;30180;44.788;10.366;2023-01-28T01:53:51;4.57;;;2.80;;
44476;SDS011;30180;44.788;10.366;2023-01-28T01:56:22;5.68;;;2.65;;
44476;SDS011;30180;44.788;10.366;2023-01-28T01:58:56;5.32;;;2.75;;
44476;SDS011;30180;44.788;10.366;2023-01-28T02:01:26;4.37;;;2.50;;
44476;SDS011;30180;44.788;10.366;2023-01-28T02:03:59;4.75;;;2.63;;
44476;SDS011;30180;44.788;10.366;2023-01-28T02:06:32;4.38;;;2.70;;
44476;SDS011;30180;44.788;10.366;2023-01-28T02:09:02;4.60;;;2.77;;
44476;SDS011;30180;44.788;10.366;2023-01-28T02:11:33;4.80;;;2.92;;
44476;SDS011;30180;44.788;10.366;2023-01-28T02:14:04;5.18;;;2.63;;
44476;SDS011;30180;44.788;10.366;2023-01-28T02:16:33;3.90;;;2.53;;
44476;SDS011;30180;44.788;10.366;2023-01-28T02:19:01;5.90;;;2.75;;
44476;SDS011;30180;44.788;10.366;2023-01-28T02:21:35;4.63;;;2.55;;
44476;SDS011;30180;44.788;10.366;2023-01-28T02:27:46;5.53;;;2.80;;
44476;SDS011;30180;44.788;10.366;2023-01-28T02:30:31;4.72;;;2.60;;
44476;SDS011;30180;44.788;10.366;2023-01-28T02:33:04;5.00;;;2.75;;
44476;SDS011;30180;44.788;10.366;2023-01-28T02:35:36;4.18;;;2.35;;
44476;SDS011;30180;44.788;10.366;2023-01-28T02:38:10;4.40;;;2.80;;
44476;SDS011;30180;44.788;10.366;2023-01-28T02:40:42;4.72;;;2.65;;
44476;SDS011;30180;44.788;10.366;2023-01-28T02:43:34;4.63;;;2.50;;
44476;SDS011;30180;44.788;10.366;2023-01-28T02:46:09;5.18;;;2.88;;
44476;SDS011;30180;44.788;10.366;2023-01-28T02:49:00;5.30;;;2.72;;
44476;SDS011;30180;44.788;10.366;2023-01-28T02:51:33;4.50;;;2.63;;
44476;SDS011;30180;44.788;10.366;2023-01-28T02:54:10;3.97;;;2.42;;
44476;SDS011;30180;44.788;10.366;2023-01-28T02:56:42;3.92;;;2.47;;
44476;SDS011;30180;44.788;10.366;2023-01-28T02:59:19;3.90;;;2.50;;
44476;SDS011;30180;44.788;10.366;2023-01-28T03:02:05;5.40;;;2.80;;
44476;SDS011;30180;44.788;10.366;2023-01-28T03:04:40;4.50;;;2.70;;
44476;SDS011;30180;44.788;10.366;2023-01-28T03:07:14;4.22;;;2.60;;
44476;SDS011;30180;44.788;10.366;2023-01-28T03:09:44;5.85;;;3.00;;
44476;SDS011;30180;44.788;10.366;2023-01-28T03:12:15;4.35;;;2.75;;
44476;SDS011;30180;44.788;10.366;2023-01-28T03:15:04;4.03;;;2.33;;
44476;SDS011;30180;44.788;10.366;2023-01-28T03:20:42;4.18;;;2.40;;
44476;SDS011;30180;44.788;10.366;2023-01-28T03:23:36;5.00;;;2.65;;
44476;SDS011;30180;44.788;10.366;2023-01-28T03:26:25;4.75;;;2.88;;
44476;SDS011;30180;44.788;10.366;2023-01-28T03:29:13;5.18;;;2.65;;
44476;SDS011;30180;44.788;10.366;2023-01-28T03:32:02;5.18;;;2.53;;
44476;SDS011;30180;44.788;10.366;2023-01-28T03:34:48;4.93;;;2.47;;
44476;SDS011;30180;44.788;10.366;2023-01-28T03:37:34;4.82;;;2.63;;
44476;SDS011;30180;44.788;10.366;2023-01-28T03:40:03;4.82;;;2.70;;
44476;SDS011;30180;44.788;10.366;2023-01-28T03:42:32;4.82;;;2.58;;
44476;SDS011;30180;44.788;10.366;2023-01-28T03:45:00;4.50;;;2.70;;
44476;SDS011;30180;44.788;10.366;2023-01-28T03:47:32;4.32;;;2.70;;
44476;SDS011;30180;44.788;10.366;2023-01-28T03:50:00;5.50;;;2.60;;
44476;SDS011;30180;44.788;10.366;2023-01-28T03:52:29;3.90;;;2.45;;
44476;SDS011;30180;44.788;10.366;2023-01-28T03:54:58;3.92;;;2.20;;
44476;SDS011;30180;44.788;10.366;2023-01-28T03:57:26;4.00;;;2.45;;
44476;SDS011;30180;44.788;10.366;2023-01-28T03:59:56;5.10;;;3.07;;
44476;SDS011;30180;44.788;10.366;2023-01-28T04:02:25;4.93;;;2.90;;
44476;SDS011;30180;44.788;10.366;2023-01-28T04:04:55;6.05;;;2.65;;
44476;SDS011;30180;44.788;10.366;2023-01-28T04:07:24;3.77;;;2.40;;
44476;SDS011;30180;44.788;10.366;2023-01-28T04:09:52;3.97;;;2.63;;
44476;SDS011;30180;44.788;10.366;2023-01-28T04:12:20;5.22;;;2.50;;
44476;SDS011;30180;44.788;10.366;2023-01-28T04:14:48;3.90;;;2.30;;
44476;SDS011;30180;44.788;10.366;2023-01-28T04:17:17;4.35;;;2.58;;
44476;SDS011;30180;44.788;10.366;2023-01-28T04:19:45;3.97;;;2.50;;
44476;SDS011;30180;44.788;10.366;2023-01-28T04:22:14;4.45;;;2.30;;
44476;SDS011;30180;44.788;10.366;2023-01-28T04:24:42;4.63;;;2.88;;
44476;SDS011;30180;44.788;10.366;2023-01-28T04:27:11;3.35;;;2.25;;
44476;SDS011;30180;44.788;10.366;2023-01-28T04:29:39;4.80;;;2.53;;
44476;SDS011;30180;44.788;10.366;2023-01-28T04:32:07;3.72;;;2.20;;
44476;SDS011;30180;44.788;10.366;2023-01-28T04:34:37;4.47;;;2.58;;
44476;SDS011;30180;44.788;10.366;2023-01-28T04:37:05;3.88;;;2.45;;
44476;SDS011;30180;44.788;10.366;2023-01-28T04:39:34;3.92;;;2.30;;
44476;SDS011;30180;44.788;10.366;2023-01-28T04:42:03;4.45;;;2.28;;
44476;SDS011;30180;44.788;10.366;2023-01-28T04:44:31;5.03;;;2.15;;
44476;SDS011;30180;44.788;10.366;2023-01-28T04:46:59;4.50;;;2.30;;
44476;SDS011;30180;44.788;10.366;2023-01-28T04:49:27;4.00;;;2.35;;
44476;SDS011;30180;44.788;10.366;2023-01-28T04:51:55;3.63;;;2.17;;
44476;SDS011;30180;44.788;10.366;2023-01-28T04:54:24;4.45;;;2.30;;
44476;SDS011;30180;44.788;10.366;2023-01-28T04:56:53;4.35;;;2.53;;
44476;SDS011;30180;44.788;10.366;2023-01-28T04:59:21;3.90;;;2.42;;
44476;SDS011;30180;44.788;10.366;2023-01-28T05:01:50;3.85;;;2.28;;
44476;SDS011;30180;44.788;10.366;2023-01-28T05:04:18;3.92;;;2.20;;
44476;SDS011;30180;44.788;10.366;2023-01-28T05:06:46;3.78;;;1.85;;
44476;SDS011;30180;44.788;10.366;2023-01-28T05:09:14;4.28;;;2.20;;
44476;SDS011;30180;44.788;10.366;2023-01-28T05:11:43;4.75;;;2.67;;
44476;SDS011;30180;44.788;10.366;2023-01-28T05:14:12;4.25;;;2.15;;
44476;SDS011;30180;44.788;10.366;2023-01-28T05:16:40;4.30;;;2.28;;
44476;SDS011;30180;44.788;10.366;2023-01-28T05:19:08;4.10;;;1.90;;
44476;SDS011;30180;44.788;10.366;2023-01-28T05:21:37;4.00;;;2.17;;
44476;SDS011;30180;44.788;10.366;2023-01-28T05:24:05;4.18;;;2.15;;
44476;SDS011;30180;44.788;10.366;2023-01-28T05:26:34;4.65;;;2.13;;
44476;SDS011;30180;44.788;10.366;2023-01-28T05:29:02;4.68;;;2.10;;
44476;SDS011;30180;44.788;10.366;2023-01-28T05:31:32;4.13;;;2.42;;
44476;SDS011;30180;44.788;10.366;2023-01-28T05:34:01;3.97;;;2.13;;
44476;SDS011;30180;44.788;10.366;2023-01-28T05:36:29;4.72;;;2.30;;
44476;SDS011;30180;44.788;10.366;2023-01-28T05:38:57;3.85;;;2.10;;
44476;SDS011;30180;44.788;10.366;2023-01-28T05:41:25;5.28;;;2.35;;
44476;SDS011;30180;44.788;10.366;2023-01-28T05:43:53;4.30;;;2.35;;
44476;SDS011;30180;44.788;10.366;2023-01-28T05:46:22;3.67;;;2.15;;
44476;SDS011;30180;44.788;10.366;2023-01-28T05:48:51;4.47;;;2.53;;
44476;SDS011;30180;44.788;10.366;2023-01-28T05:51:20;4.30;;;2.50;;
44476;SDS011;30180;44.788;10.366;2023-01-28T05:53:48;3.53;;;2.33;;
44476;SDS011;30180;44.788;10.366;2023-01-28T05:56:16;3.67;;;1.88;;
44476;SDS011;30180;44.788;10.366;2023-01-28T05:58:44;4.28;;;2.20;;
44476;SDS011;30180;44.788;10.366;2023-01-28T06:01:12;4.22;;;2.42;;
44476;SDS011;30180;44.788;10.366;2023-01-28T06:03:41;3.55;;;2.10;;
44476;SDS011;30180;44.788;10.366;2023-01-28T06:06:10;3.63;;;2.17;;
44476;SDS011;30180;44.788;10.366;2023-01-28T06:08:39;4.15;;;2.05;;
44476;SDS011;30180;44.788;10.366;2023-01-28T06:11:07;3.30;;;2.10;;
44476;SDS011;30180;44.788;10.366;2023-01-28T06:13:36;3.25;;;2.00;;
44476;SDS011;30180;44.788;10.366;2023-01-28T06:16:04;3.65;;;2.05;;
44476;SDS011;30180;44.788;10.366;2023-01-28T06:18:33;4.28;;;2.10;;
44476;SDS011;30180;44.788;10.366;2023-01-28T06:21:01;4.32;;;2.50;;
44476;SDS011;30180;44.788;10.366;2023-01-28T06:23:31;4.65;;;2.38;;
44476;SDS011;30180;44.788;10.366;2023-01-28T06:25:59;4.57;;;2.22;;
44476;SDS011;30180;44.788;10.366;2023-01-28T06:28:27;4.13;;;2.22;;
44476;SDS011;30180;44.788;10.366;2023-01-28T06:30:55;3.80;;;2.20;;
44476;SDS011;30180;44.788;10.366;2023-01-28T06:33:24;3.47;;;1.90;;
44476;SDS011;30180;44.788;10.366;2023-01-28T06:35:54;3.47;;;1.98;;
44476;SDS011;30180;44.788;10.366;2023-01-28T06:38:22;4.13;;;2.20;;
44476;SDS011;30180;44.788;10.366;2023-01-28T06:40:52;3.95;;;2.20;;
44476;SDS011;30180;44.788;10.366;2023-01-28T06:43:21;3.40;;;2.10;;
44476;SDS011;30180;44.788;10.366;2023-01-28T06:45:52;3.30;;;1.98;;
44476;SDS011;30180;44.788;10.366;2023-01-28T06:48:21;4.10;;;2.30;;
44476;SDS011;30180;44.788;10.366;2023-01-28T06:50:50;4.15;;;2.33;;
44476;SDS011;30180;44.788;10.366;2023-01-28T06:53:18;3.53;;;2.03;;
44476;SDS011;30180;44.788;10.366;2023-01-28T06:55:47;2.97;;;1.75;;
44476;SDS011;30180;44.788;10.366;2023-01-28T06:58:17;3.50;;;2.00;;
44476;SDS011;30180;44.788;10.366;2023-01-28T07:00:45;3.60;;;1.95;;
44476;SDS011;30180;44.788;10.366;2023-01-28T07:03:14;4.75;;;2.20;;
44476;SDS011;30180;44.788;10.366;2023-01-28T07:05:42;3.95;;;2.03;;
44476;SDS011;30180;44.788;10.366;2023-01-28T07:08:10;3.20;;;1.75;;
44476;SDS011;30180;44.788;10.366;2023-01-28T07:10:39;3.58;;;2.00;;
44476;SDS011;30180;44.788;10.366;2023-01-28T07:13:07;4.18;;;2.17;;
44476;SDS011;30180;44.788;10.366;2023-01-28T07:15:36;3.35;;;1.98;;
44476;SDS011;30180;44.788;10.366;2023-01-28T07:18:05;3.13;;;2.05;;
44476;SDS011;30180;44.788;10.366;2023-01-28T07:20:33;3.88;;;1.88;;
44476;SDS011;30180;44.788;10.366;2023-01-28T07:23:01;3.22;;;1.85;;
44476;SDS011;30180;44.788;10.366;2023-01-28T07:25:29;4.40;;;2.28;;
44476;SDS011;30180;44.788;10.366;2023-01-28T07:27:57;3.95;;;2.40;;
44476;SDS011;30180;44.788;10.366;2023-01-28T07:30:26;3.42;;;2.15;;
44476;SDS011;30180;44.788;10.366;2023-01-28T07:32:56;4.25;;;2.25;;
44476;SDS011;30180;44.788;10.366;2023-01-28T07:35:25;3.60;;;1.90;;
44476;SDS011;30180;44.788;10.366;2023-01-28T07:37:55;4.10;;;2.33;;
44476;SDS011;30180;44.788;10.366;2023-01-28T07:40:25;3.50;;;2.17;;
44476;SDS011;30180;44.788;10.366;2023-01-28T07:42:55;4.18;;;2.03;;
44476;SDS011;30180;44.788;10.366;2023-01-28T07:45:23;3.20;;;1.95;;
44476;SDS011;30180;44.788;10.366;2023-01-28T07:47:55;4.10;;;2.10;;
44476;SDS011;30180;44.788;10.366;2023-01-28T07:50:25;2.88;;;1.80;;
44476;SDS011;30180;44.788;10.366;2023-01-28T07:52:54;3.13;;;1.90;;
44476;SDS011;30180;44.788;10.366;2023-01-28T07:55:23;2.85;;;1.80;;
44476;SDS011;30180;44.788;10.366;2023-01-28T07:57:53;4.63;;;2.30;;
44476;SDS011;30180;44.788;10.366;2023-01-28T08:00:22;4.20;;;2.20;;
44476;SDS011;30180;44.788;10.366;2023-01-28T08:02:54;4.40;;;2.15;;
44476;SDS011;30180;44.788;10.366;2023-01-28T08:05:25;3.58;;;2.10;;
44476;SDS011;30180;44.788;10.366;2023-01-28T08:07:56;4.75;;;2.20;;
44476;SDS011;30180;44.788;10.366;2023-01-28T08:10:24;4.97;;;2.28;;
44476;SDS011;30180;44.788;10.366;2023-01-28T08:12:52;3.92;;;2.20;;
44476;SDS011;30180;44.788;10.366;2023-01-28T08:15:22;5.30;;;2.30;;
44476;SDS011;30180;44.788;10.366;2023-01-28T08:17:52;4.55;;;2.33;;
44476;SDS011;30180;44.788;10.366;2023-01-28T08:20:23;5.15;;;2.45;;
44476;SDS011;30180;44.788;10.366;2023-01-28T08:23:02;3.55;;;2.30;;
44476;SDS011;30180;44.788;10.366;2023-01-28T08:25:32;3.90;;;2.10;;
44476;SDS011;30180;44.788;10.366;2023-01-28T08:28:00;5.07;;;2.70;;
44476;SDS011;30180;44.788;10.366;2023-01-28T08:30:28;5.47;;;2.50;;
44476;SDS011;30180;44.788;10.366;2023-01-28T08:32:57;5.63;;;2.60;;
44476;SDS011;30180;44.788;10.366;2023-01-28T08:35:28;6.57;;;2.40;;
44476;SDS011;30180;44.788;10.366;2023-01-28T08:37:57;6.80;;;3.20;;
44476;SDS011;30180;44.788;10.366;2023-01-28T08:40:26;4.78;;;2.40;;
44476;SDS011;30180;44.788;10.366;2023-01-28T08:42:55;8.30;;;3.10;;
44476;SDS011;30180;44.788;10.366;2023-01-28T08:45:24;11.27;;;2.90;;
44476;SDS011;30180;44.788;10.366;2023-01-28T08:47:54;4.65;;;2.42;;
44476;SDS011;30180;44.788;10.366;2023-01-28T08:50:25;7.43;;;3.03;;
44476;SDS011;30180;44.788;10.366;2023-01-28T08:52:56;6.13;;;3.28;;
44476;SDS011;30180;44.788;10.366;2023-01-28T08:55:27;12.23;;;6.28;;
44476;SDS011;30180;44.788;10.366;2023-01-28T08:57:55;16.02;;;9.20;;
44476;SDS011;30180;44.788;10.366;2023-01-28T09:00:24;16.33;;;8.35;;
44476;SDS011;30180;44.788;10.366;2023-01-28T09:02:52;21.10;;;9.20;;
44476;SDS011;30180;44.788;10.366;2023-01-28T09:05:21;22.70;;;8.88;;
44476;SDS011;30180;44.788;10.366;2023-01-28T09:07:50;14.73;;;7.20;;
44476;SDS011;30180;44.788;10.366;2023-01-28T09:10:20;11.15;;;6.50;;
44476;SDS011;30180;44.788;10.366;2023-01-28T09:12:48;12.90;;;6.80;;
44476;SDS011;30180;44.788;10.366;2023-01-28T09:15:17;12.07;;;6.45;;
44476;SDS011;30180;44.788;10.366;2023-01-28T09:17:45;18.25;;;6.65;;
44476;SDS011;30180;44.788;10.366;2023-01-28T09:20:13;13.45;;;5.85;;
44476;SDS011;30180;44.788;10.366;2023-01-28T09:22:42;10.95;;;5.57;;
44476;SDS011;30180;44.788;10.366;2023-01-28T09:25:10;11.30;;;5.50;;
44476;SDS011;30180;44.788;10.366;2023-01-28T09:27:39;9.73;;;5.38;;
44476;SDS011;30180;44.788;10.366;2023-01-28T09:30:08;11.85;;;6.35;;
44476;SDS011;30180;44.788;10.366;2023-01-28T09:32:39;11.60;;;5.07;;
44476;SDS011;30180;44.788;10.366;2023-01-28T09:35:08;11.07;;;5.45;;
44476;SDS011;30180;44.788;10.366;2023-01-28T09:37:37;8.60;;;4.95;;
44476;SDS011;30180;44.788;10.366;2023-01-28T09:40:06;10.88;;;5.10;;
44476;SDS011;30180;44.788;10.366;2023-01-28T09:42:42;10.82;;;4.95;;
44476;SDS011;30180;44.788;10.366;2023-01-28T09:45:22;11.75;;;4.80;;
44476;SDS011;30180;44.788;10.366;2023-01-28T09:47:59;9.43;;;4.40;;
44476;SDS011;30180;44.788;10.366;2023-01-28T09:50:31;10.70;;;4.38;;
44476;SDS011;30180;44.788;10.366;2023-01-28T09:53:03;11.35;;;4.38;;
44476;SDS011;30180;44.788;10.366;2023-01-28T09:55:34;9.15;;;4.22;;
44476;SDS011;30180;44.788;10.366;2023-01-28T09:58:06;9.88;;;4.32;;
44476;SDS011;30180;44.788;10.366;2023-01-28T10:00:40;11.13;;;4.05;;
44476;SDS011;30180;44.788;10.366;2023-01-28T10:06:20;8.65;;;4.10;;
44476;SDS011;30180;44.788;10.366;2023-01-28T10:12:08;7.10;;;3.83;;
44476;SDS011;30180;44.788;10.366;2023-01-28T10:14:48;7.07;;;3.50;;
44476;SDS011;30180;44.788;10.366;2023-01-28T10:17:24;7.13;;;3.80;;
44476;SDS011;30180;44.788;10.366;2023-01-28T10:19:54;6.82;;;3.47;;
44476;SDS011;30180;44.788;10.366;2023-01-28T10:22:28;8.48;;;4.00;;
44476;SDS011;30180;44.788;10.366;2023-01-28T10:25:01;6.43;;;3.35;;
44476;SDS011;30180;44.788;10.366;2023-01-28T10:27:32;6.30;;;3.25;;
44476;SDS011;30180;44.788;10.366;2023-01-28T10:30:14;7.70;;;3.47;;
44476;SDS011;30180;44.788;10.366;2023-01-28T10:32:46;9.00;;;3.25;;
44476;SDS011;30180;44.788;10.366;2023-01-28T10:35:19;6.90;;;3.22;;
44476;SDS011;30180;44.788;10.366;2023-01-28T10:37:48;7.47;;;3.33;;
44476;SDS011;30180;44.788;10.366;2023-01-28T10:40:16;7.93;;;3.30;;
44476;SDS011;30180;44.788;10.366;2023-01-28T10:42:45;8.63;;;3.65;;
44476;SDS011;30180;44.788;10.366;2023-01-28T10:45:16;6.47;;;3.42;;
44476;SDS011;30180;44.788;10.366;2023-01-28T10:47:49;6.78;;;3.10;;
44476;SDS011;30180;44.788;10.366;2023-01-28T10:50:21;7.38;;;3.38;;
44476;SDS011;30180;44.788;10.366;2023-01-28T10:52:51;7.88;;;3.55;;
44476;SDS011;30180;44.788;10.366;2023-01-28T10:55:21;9.02;;;3.20;;
44476;SDS011;30180;44.788;10.366;2023-01-28T10:57:50;8.30;;;3.63;;
44476;SDS011;30180;44.788;10.366;2023-01-28T11:00:25;6.93;;;3.58;;
44476;SDS011;30180;44.788;10.366;2023-01-28T11:02:56;7.75;;;3.30;;
44476;SDS011;30180;44.788;10.366;2023-01-28T11:05:26;8.15;;;3.63;;
44476;SDS011;30180;44.788;10.366;2023-01-28T11:08:02;7.03;;;3.15;;
44476;SDS011;30180;44.788;10.366;2023-01-28T11:10:33;6.22;;;3.20;;
44476;SDS011;30180;44.788;10.366;2023-01-28T11:13:03;6.07;;;3.03;;
44476;SDS011;30180;44.788;10.366;2023-01-28T11:15:34;7.70;;;3.38;;
44476;SDS011;30180;44.788;10.366;2023-01-28T11:18:03;5.75;;;2.88;;
44476;SDS011;30180;44.788;10.366;2023-01-28T11:20:37;9.07;;;3.30;;
44476;SDS011;30180;44.788;10.366;2023-01-28T11:23:16;6.97;;;3.10;;
44476;SDS011;30180;44.788;10.366;2023-01-28T11:25:48;5.05;;;2.50;;
44476;SDS011;30180;44.788;10.366;2023-01-28T11:28:25;5.25;;;2.70;;
44476;SDS011;30180;44.788;10.366;2023-01-28T11:30:55;6.45;;;2.83;;
44476;SDS011;30180;44.788;10.366;2023-01-28T11:33:26;4.80;;;2.72;;
44476;SDS011;30180;44.788;10.366;2023-01-28T11:36:03;6.82;;;2.97;;
44476;SDS011;30180;44.788;10.366;2023-01-28T11:38:34;5.03;;;2.83;;
44476;SDS011;30180;44.788;10.366;2023-01-28T11:41:03;6.57;;;2.80;;
44476;SDS011;30180;44.788;10.366;2023-01-28T11:43:31;4.55;;;2.72;;
44476;SDS011;30180;44.788;10.366;2023-01-28T11:46:05;5.38;;;2.60;;
44476;SDS011;30180;44.788;10.366;2023-01-28T11:48:43;7.25;;;3.22;;
44476;SDS011;30180;44.788;10.366;2023-01-28T11:51:28;6.05;;;3.05;;
44476;SDS011;30180;44.788;10.366;2023-01-28T11:54:05;5.45;;;2.65;;
44476;SDS011;30180;44.788;10.366;2023-01-28T11:56:50;6.70;;;2.83;;
44476;SDS011;30180;44.788;10.366;2023-01-28T11:59:53;4.78;;;2.47;;
44476;SDS011;30180;44.788;10.366;2023-01-28T12:02:35;5.25;;;2.92;;
44476;SDS011;30180;44.788;10.366;2023-01-28T12:05:32;5.03;;;2.53;;
44476;SDS011;30180;44.788;10.366;2023-01-28T12:08:11;4.55;;;2.47;;
44476;SDS011;30180;44.788;10.366;2023-01-28T12:10:51;5.85;;;2.72;;
44476;SDS011;30180;44.788;10.366;2023-01-28T12:13:36;4.53;;;2.80;;
44476;SDS011;30180;44.788;10.366;2023-01-28T12:16:17;4.80;;;2.60;;
44476;SDS011;30180;44.788;10.366;2023-01-28T12:19:10;4.87;;;2.50;;
44476;SDS011;30180;44.788;10.366;2023-01-28T12:22:00;5.90;;;2.25;;
44476;SDS011;30180;44.788;10.366;2023-01-28T12:24:48;5.35;;;2.63;;
44476;SDS011;30180;44.788;10.366;2023-01-28T12:27:33;5.32;;;2.85;;
44476;SDS011;30180;44.788;10.366;2023-01-28T12:30:14;5.47;;;2.95;;
44476;SDS011;30180;44.788;10.366;2023-01-28T12:32:53;4.57;;;2.33;;
44476;SDS011;30180;44.788;10.366;2023-01-28T12:35:37;5.97;;;2.80;;
44476;SDS011;30180;44.788;10.366;2023-01-28T12:38:18;5.93;;;3.03;;
44476;SDS011;30180;44.788;10.366;2023-01-28T12:40:58;5.05;;;2.60;;
44476;SDS011;30180;44.788;10.366;2023-01-28T12:43:40;4.68;;;2.58;;
44476;SDS011;30180;44.788;10.366;2023-01-28T12:46:17;5.28;;;2.67;;
44476;SDS011;30180;44.788;10.366;2023-01-28T12:48:57;5.18;;;2.30;;
44476;SDS011;30180;44.788;10.366;2023-01-28T12:51:31;5.30;;;2.60;;
44476;SDS011;30180;44.788;10.366;2023-01-28T12:54:10;6.85;;;2.67;;
44476;SDS011;30180;44.788;10.366;2023-01-28T12:56:44;5.20;;;2.47;;
44476;SDS011;30180;44.788;10.366;2023-01-28T12:59:18;4.60;;;2.47;;
44476;SDS011;30180;44.788;10.366;2023-01-28T13:01:52;4.85;;;2.25;;
44476;SDS011;30180;44.788;10.366;2023-01-28T13:04:30;5.20;;;2.55;;
44476;SDS011;30180;44.788;10.366;2023-01-28T13:07:08;5.07;;;2.17;;
44476;SDS011;30180;44.788;10.366;2023-01-28T13:09:42;4.55;;;2.50;;
44476;SDS011;30180;44.788;10.366;2023-01-28T13:12:18;4.18;;;2.38;;
44476;SDS011;30180;44.788;10.366;2023-01-28T13:14:47;6.57;;;2.67;;
44476;SDS011;30180;44.788;10.366;2023-01-28T13:17:24;6.68;;;2.67;;
44476;SDS011;30180;44.788;10.366;2023-01-28T13:19:53;5.25;;;2.50;;
44476;SDS011;30180;44.788;10.366;2023-01-28T13:22:28;4.25;;;2.30;;
44476;SDS011;30180;44.788;10.366;2023-01-28T13:25:11;5.28;;;2.55;;
44476;SDS011;30180;44.788;10.366;2023-01-28T13:27:53;5.05;;;2.53;;
44476;SDS011;30180;44.788;10.366;2023-01-28T13:30:25;4.47;;;2.50;;
44476;SDS011;30180;44.788;10.366;2023-01-28T13:32:55;5.03;;;2.22;;
44476;SDS011;30180;44.788;10.366;2023-01-28T13:37:59;5.97;;;2.40;;
44476;SDS011;30180;44.788;10.366;2023-01-28T13:40:34;4.97;;;2.30;;
44476;SDS011;30180;44.788;10.366;2023-01-28T13:43:05;4.25;;;2.45;;
44476;SDS011;30180;44.788;10.366;2023-01-28T13:45:53;4.60;;;2.40;;
44476;SDS011;30180;44.788;10.366;2023-01-28T13:48:26;4.43;;;2.35;;
44476;SDS011;30180;44.788;10.366;2023-01-28T13:50:59;4.25;;;2.28;;
44476;SDS011;30180;44.788;10.366;2023-01-28T13:53:34;4.63;;;2.42;;
44476;SDS011;30180;44.788;10.366;2023-01-28T13:56:14;4.18;;;2.30;;
44476;SDS011;30180;44.788;10.366;2023-01-28T14:04:43;4.63;;;2.50;;
44476;SDS011;30180;44.788;10.366;2023-01-28T14:07:39;6.95;;;2.50;;
44476;SDS011;30180;44.788;10.366;2023-01-28T14:10:36;4.07;;;2.22;;
44476;SDS011;30180;44.788;10.366;2023-01-28T14:16:18;3.90;;;2.13;;
44476;SDS011;30180;44.788;10.366;2023-01-28T14:18:58;4.17;;;2.20;;
44476;SDS011;30180;44.788;10.366;2023-01-28T14:21:30;4.63;;;2.50;;
44476;SDS011;30180;44.788;10.366;2023-01-28T14:24:00;4.30;;;2.15;;
44476;SDS011;30180;44.788;10.366;2023-01-28T14:26:33;5.18;;;2.45;;
44476;SDS011;30180;44.788;10.366;2023-01-28T14:29:13;4.47;;;2.13;;
44476;SDS011;30180;44.788;10.366;2023-01-28T14:32:04;3.65;;;2.00;;
44476;SDS011;30180;44.788;10.366;2023-01-28T14:34:38;4.55;;;2.45;;
44476;SDS011;30180;44.788;10.366;2023-01-28T14:37:08;5.90;;;2.22;;
44476;SDS011;30180;44.788;10.366;2023-01-28T14:39:40;4.70;;;2.10;;
44476;SDS011;30180;44.788;10.366;2023-01-28T14:42:15;4.30;;;2.17;;
44476;SDS011;30180;44.788;10.366;2023-01-28T14:44:49;4.15;;;2.08;;
44476;SDS011;30180;44.788;10.366;2023-01-28T14:47:35;4.55;;;2.30;;
44476;SDS011;30180;44.788;10.366;2023-01-28T14:53:20;4.70;;;2.33;;
44476;SDS011;30180;44.788;10.366;2023-01-28T14:56:01;4.03;;;2.10;;
44476;SDS011;30180;44.788;10.366;2023-01-28T14:58:39;4.78;;;1.77;;
44476;SDS011;30180;44.788;10.366;2023-01-28T15:01:19;4.25;;;2.17;;
44476;SDS011;30180;44.788;10.366;2023-01-28T15:03:48;5.07;;;1.90;;
44476;SDS011;30180;44.788;10.366;2023-01-28T15:06:18;4.88;;;2.15;;
44476;SDS011;30180;44.788;10.366;2023-01-28T15:08:49;4.47;;;2.40;;
44476;SDS011;30180;44.788;10.366;2023-01-28T15:11:18;3.72;;;2.00;;
44476;SDS011;30180;44.788;10.366;2023-01-28T15:13:51;4.20;;;2.00;;
44476;SDS011;30180;44.788;10.366;2023-01-28T15:16:24;4.22;;;2.15;;
44476;SDS011;30180;44.788;10.366;2023-01-28T15:18:55;3.75;;;2.30;;
44476;SDS011;30180;44.788;10.366;2023-01-28T15:21:26;5.20;;;2.07;;
44476;SDS011;30180;44.788;10.366;2023-01-28T15:23:56;4.07;;;1.98;;
44476;SDS011;30180;44.788;10.366;2023-01-28T15:26:28;4.80;;;2.10;;
44476;SDS011;30180;44.788;10.366;2023-01-28T15:29:00;3.70;;;2.10;;
44476;SDS011;30180;44.788;10.366;2023-01-28T15:31:29;3.60;;;2.00;;
44476;SDS011;30180;44.788;10.366;2023-01-28T15:36:29;4.00;;;2.10;;
44476;SDS011;30180;44.788;10.366;2023-01-28T15:38:58;3.65;;;2.13;;
44476;SDS011;30180;44.788;10.366;2023-01-28T15:41:27;4.57;;;2.30;;